sensor_id;sensor_type;location;lat;lon;timestamp;P1;durP1;ratioP1;P2;durP2;ratioP2
1567;SDS011;777;47.156;8.326;2023-03-25T00:02:21;2.70;;;1.60;;
1567;SDS011;777;47.156;8.326;2023-03-25T00:04:49;2.53;;;1.38;;
1567;SDS011;777;47.156;8.326;2023-03-25T00:07:17;5.28;;;1.60;;
1567;SDS011;777;47.156;8.326;2023-03-25T00:09:44;4.68;;;1.30;;
1567;SDS011;777;47.156;8.326;2023-03-25T00:12:13;2.88;;;1.42;;
1567;SDS011;777;47.156;8.326;2023-03-25T00:14:41;3.10;;;1.10;;
1567;SDS011;777;47.156;8.326;2023-03-25T00:17:08;2.47;;;1.50;;
1567;SDS011;777;47.156;8.326;2023-03-25T00:19:38;3.63;;;1.23;;
1567;SDS011;777;47.156;8.326;2023-03-25T00:22:05;3.83;;;1.33;;
1567;SDS011;777;47.156;8.326;2023-03-25T00:24:32;4.20;;;1.10;;
1567;SDS011;777;47.156;8.326;2023-03-25T00:26:59;3.03;;;1.08;;
1567;SDS011;777;47.156;8.326;2023-03-25T00:29:28;5.00;;;1.08;;
1567;SDS011;777;47.156;8.326;2023-03-25T00:31:55;3.88;;;1.35;;
1567;SDS011;777;47.156;8.326;2023-03-25T00:34:22;2.20;;;0.98;;
1567;SDS011;777;47.156;8.326;2023-03-25T00:36:48;2.75;;;1.10;;
1567;SDS011;777;47.156;8.326;2023-03-25T00:39:15;3.40;;;1.10;;
1567;SDS011;777;47.156;8.326;2023-03-25T00:41:42;1.98;;;0.80;;
1567;SDS011;777;47.156;8.326;2023-03-25T00:44:10;2.63;;;0.77;;
1567;SDS011;777;47.156;8.326;2023-03-25T00:46:39;2.78;;;0.90;;
1567;SDS011;777;47.156;8.326;2023-03-25T00:49:07;3.28;;;1.08;;
1567;SDS011;777;47.156;8.326;2023-03-25T00:51:34;1.95;;;0.60;;
1567;SDS011;777;47.156;8.326;2023-03-25T00:54:01;2.60;;;0.85;;
1567;SDS011;777;47.156;8.326;2023-03-25T00:56:29;3.45;;;0.85;;
1567;SDS011;777;47.156;8.326;2023-03-25T00:58:56;3.08;;;0.60;;
1567;SDS011;777;47.156;8.326;2023-03-25T01:01:25;3.15;;;0.77;;
1567;SDS011;777;47.156;8.326;2023-03-25T01:03:55;1.83;;;0.60;;
1567;SDS011;777;47.156;8.326;2023-03-25T01:06:24;3.80;;;1.50;;
1567;SDS011;777;47.156;8.326;2023-03-25T01:08:54;5.13;;;1.00;;
1567;SDS011;777;47.156;8.326;2023-03-25T01:11:24;3.78;;;0.88;;
1567;SDS011;777;47.156;8.326;2023-03-25T01:13:53;3.30;;;0.80;;
1567;SDS011;777;47.156;8.326;2023-03-25T01:16:20;1.85;;;0.70;;
1567;SDS011;777;47.156;8.326;2023-03-25T01:18:48;3.47;;;0.77;;
1567;SDS011;777;47.156;8.326;2023-03-25T01:21:17;2.00;;;1.08;;
1567;SDS011;777;47.156;8.326;2023-03-25T01:23:44;3.92;;;1.17;;
1567;SDS011;777;47.156;8.326;2023-03-25T01:26:11;4.25;;;1.15;;
1567;SDS011;777;47.156;8.326;2023-03-25T01:28:39;3.55;;;0.80;;
1567;SDS011;777;47.156;8.326;2023-03-25T01:31:07;3.55;;;0.40;;
1567;SDS011;777;47.156;8.326;2023-03-25T01:33:35;3.00;;;0.90;;
1567;SDS011;777;47.156;8.326;2023-03-25T01:36:02;3.13;;;0.70;;
1567;SDS011;777;47.156;8.326;2023-03-25T01:38:34;1.38;;;0.50;;
1567;SDS011;777;47.156;8.326;2023-03-25T01:41:02;1.48;;;0.50;;
1567;SDS011;777;47.156;8.326;2023-03-25T01:43:30;2.35;;;0.57;;
1567;SDS011;777;47.156;8.326;2023-03-25T01:45:58;1.17;;;0.40;;
1567;SDS011;777;47.156;8.326;2023-03-25T01:48:26;3.33;;;0.75;;
1567;SDS011;777;47.156;8.326;2023-03-25T01:50:58;2.50;;;0.50;;
1567;SDS011;777;47.156;8.326;2023-03-25T01:53:28;2.17;;;0.45;;
1567;SDS011;777;47.156;8.326;2023-03-25T01:55:59;1.63;;;0.40;;
1567;SDS011;777;47.156;8.326;2023-03-25T01:58:29;1.65;;;0.38;;
1567;SDS011;777;47.156;8.326;2023-03-25T02:00:57;0.57;;;0.30;;
1567;SDS011;777;47.156;8.326;2023-03-25T02:03:25;0.30;;;0.30;;
1567;SDS011;777;47.156;8.326;2023-03-25T02:05:55;1.00;;;0.40;;
1567;SDS011;777;47.156;8.326;2023-03-25T02:08:26;0.40;;;0.32;;
1567;SDS011;777;47.156;8.326;2023-03-25T02:10:56;0.75;;;0.30;;
1567;SDS011;777;47.156;8.326;2023-03-25T02:13:25;1.77;;;0.40;;
1567;SDS011;777;47.156;8.326;2023-03-25T02:15:57;1.50;;;0.52;;
1567;SDS011;777;47.156;8.326;2023-03-25T02:18:42;1.90;;;0.50;;
1567;SDS011;777;47.156;8.326;2023-03-25T02:24:31;1.48;;;0.50;;
1567;SDS011;777;47.156;8.326;2023-03-25T02:27:23;3.33;;;0.57;;
1567;SDS011;777;47.156;8.326;2023-03-25T02:33:29;3.00;;;0.60;;
1567;SDS011;777;47.156;8.326;2023-03-25T02:36:25;1.80;;;0.60;;
1567;SDS011;777;47.156;8.326;2023-03-25T02:39:26;3.58;;;0.60;;
1567;SDS011;777;47.156;8.326;2023-03-25T02:42:02;4.53;;;0.70;;
1567;SDS011;777;47.156;8.326;2023-03-25T02:44:36;4.93;;;0.68;;
1567;SDS011;777;47.156;8.326;2023-03-25T02:47:08;3.67;;;0.70;;
1567;SDS011;777;47.156;8.326;2023-03-25T02:49:39;3.78;;;0.57;;
1567;SDS011;777;47.156;8.326;2023-03-25T02:52:10;1.58;;;0.47;;
1567;SDS011;777;47.156;8.326;2023-03-25T02:54:42;5.85;;;0.85;;
1567;SDS011;777;47.156;8.326;2023-03-25T02:57:11;4.80;;;0.68;;
1567;SDS011;777;47.156;8.326;2023-03-25T02:59:40;3.15;;;0.70;;
1567;SDS011;777;47.156;8.326;2023-03-25T03:02:10;3.92;;;0.90;;
1567;SDS011;777;47.156;8.326;2023-03-25T03:04:47;4.13;;;0.80;;
1567;SDS011;777;47.156;8.326;2023-03-25T03:10:26;3.55;;;0.82;;
1567;SDS011;777;47.156;8.326;2023-03-25T03:13:00;5.00;;;0.98;;
1567;SDS011;777;47.156;8.326;2023-03-25T03:15:36;7.80;;;1.10;;
1567;SDS011;777;47.156;8.326;2023-03-25T03:18:13;3.50;;;1.08;;
1567;SDS011;777;47.156;8.326;2023-03-25T03:20:53;3.50;;;0.98;;
1567;SDS011;777;47.156;8.326;2023-03-25T03:23:26;4.93;;;0.93;;
1567;SDS011;777;47.156;8.326;2023-03-25T03:26:00;4.28;;;1.00;;
1567;SDS011;777;47.156;8.326;2023-03-25T03:28:34;3.95;;;0.82;;
1567;SDS011;777;47.156;8.326;2023-03-25T03:31:10;3.67;;;0.70;;
1567;SDS011;777;47.156;8.326;2023-03-25T03:33:45;3.33;;;1.00;;
1567;SDS011;777;47.156;8.326;2023-03-25T03:36:16;3.78;;;0.90;;
1567;SDS011;777;47.156;8.326;2023-03-25T03:38:48;6.07;;;0.90;;
1567;SDS011;777;47.156;8.326;2023-03-25T03:41:22;7.75;;;1.20;;
1567;SDS011;777;47.156;8.326;2023-03-25T03:43:53;5.75;;;1.00;;
1567;SDS011;777;47.156;8.326;2023-03-25T03:46:23;2.15;;;0.55;;
1567;SDS011;777;47.156;8.326;2023-03-25T03:48:55;1.05;;;0.20;;
1567;SDS011;777;47.156;8.326;2023-03-25T03:51:24;0.70;;;0.28;;
1567;SDS011;777;47.156;8.326;2023-03-25T03:53:56;0.50;;;0.17;;
1567;SDS011;777;47.156;8.326;2023-03-25T03:56:27;0.40;;;0.20;;
1567;SDS011;777;47.156;8.326;2023-03-25T03:59:01;1.17;;;0.20;;
1567;SDS011;777;47.156;8.326;2023-03-25T04:01:33;1.15;;;0.22;;
1567;SDS011;777;47.156;8.326;2023-03-25T04:04:10;0.30;;;0.20;;
1567;SDS011;777;47.156;8.326;2023-03-25T04:06:40;0.10;;;0.10;;
1567;SDS011;777;47.156;8.326;2023-03-25T04:09:12;0.10;;;0.10;;
1567;SDS011;777;47.156;8.326;2023-03-25T04:11:52;0.15;;;0.10;;
1567;SDS011;777;47.156;8.326;2023-03-25T04:14:24;0.20;;;0.20;;
1567;SDS011;777;47.156;8.326;2023-03-25T04:16:51;0.15;;;0.10;;
1567;SDS011;777;47.156;8.326;2023-03-25T04:19:20;0.10;;;0.10;;
1567;SDS011;777;47.156;8.326;2023-03-25T04:21:47;0.75;;;0.10;;
1567;SDS011;777;47.156;8.326;2023-03-25T04:24:14;0.10;;;0.10;;
1567;SDS011;777;47.156;8.326;2023-03-25T04:26:44;0.32;;;0.20;;
1567;SDS011;777;47.156;8.326;2023-03-25T04:29:13;0.28;;;0.20;;
1567;SDS011;777;47.156;8.326;2023-03-25T04:31:40;0.20;;;0.13;;
1567;SDS011;777;47.156;8.326;2023-03-25T04:34:10;1.48;;;0.45;;
1567;SDS011;777;47.156;8.326;2023-03-25T04:36:39;1.52;;;0.55;;
1567;SDS011;777;47.156;8.326;2023-03-25T04:39:07;2.15;;;0.50;;
1567;SDS011;777;47.156;8.326;2023-03-25T04:41:36;1.77;;;0.50;;
1567;SDS011;777;47.156;8.326;2023-03-25T04:44:04;0.90;;;0.47;;
1567;SDS011;777;47.156;8.326;2023-03-25T04:46:34;0.57;;;0.40;;
1567;SDS011;777;47.156;8.326;2023-03-25T04:49:02;0.40;;;0.40;;
1567;SDS011;777;47.156;8.326;2023-03-25T04:51:30;1.05;;;0.60;;
1567;SDS011;777;47.156;8.326;2023-03-25T04:53:58;0.90;;;0.40;;
1567;SDS011;777;47.156;8.326;2023-03-25T04:56:25;1.17;;;0.40;;
1567;SDS011;777;47.156;8.326;2023-03-25T04:58:53;0.75;;;0.50;;
1567;SDS011;777;47.156;8.326;2023-03-25T05:01:21;1.17;;;0.30;;
1567;SDS011;777;47.156;8.326;2023-03-25T05:03:56;1.20;;;0.30;;
1567;SDS011;777;47.156;8.326;2023-03-25T05:06:29;1.38;;;0.40;;
1567;SDS011;777;47.156;8.326;2023-03-25T05:08:58;0.98;;;0.35;;
1567;SDS011;777;47.156;8.326;2023-03-25T05:11:28;1.52;;;0.43;;
1567;SDS011;777;47.156;8.326;2023-03-25T05:13:55;1.27;;;0.38;;
1567;SDS011;777;47.156;8.326;2023-03-25T05:16:22;2.72;;;0.40;;
1567;SDS011;777;47.156;8.326;2023-03-25T05:18:49;1.23;;;0.40;;
1567;SDS011;777;47.156;8.326;2023-03-25T05:21:18;1.38;;;0.40;;
1567;SDS011;777;47.156;8.326;2023-03-25T05:23:45;1.10;;;0.50;;
1567;SDS011;777;47.156;8.326;2023-03-25T05:26:13;1.20;;;0.50;;
1567;SDS011;777;47.156;8.326;2023-03-25T05:28:40;0.70;;;0.60;;
1567;SDS011;777;47.156;8.326;2023-03-25T05:31:07;1.13;;;0.50;;
1567;SDS011;777;47.156;8.326;2023-03-25T05:33:34;0.93;;;0.40;;
1567;SDS011;777;47.156;8.326;2023-03-25T05:36:08;0.83;;;0.33;;
1567;SDS011;777;47.156;8.326;2023-03-25T05:38:37;1.38;;;0.43;;
1567;SDS011;777;47.156;8.326;2023-03-25T05:41:06;1.15;;;0.30;;
1567;SDS011;777;47.156;8.326;2023-03-25T05:43:35;1.00;;;0.30;;
1567;SDS011;777;47.156;8.326;2023-03-25T05:46:02;1.88;;;0.43;;
1567;SDS011;777;47.156;8.326;2023-03-25T05:48:30;1.73;;;0.60;;
1567;SDS011;777;47.156;8.326;2023-03-25T05:50:57;0.95;;;0.45;;
1567;SDS011;777;47.156;8.326;2023-03-25T05:53:24;1.10;;;0.40;;
1567;SDS011;777;47.156;8.326;2023-03-25T05:55:53;2.78;;;0.60;;
1567;SDS011;777;47.156;8.326;2023-03-25T05:58:20;0.90;;;0.47;;
1567;SDS011;777;47.156;8.326;2023-03-25T06:00:49;3.08;;;0.65;;
1567;SDS011;777;47.156;8.326;2023-03-25T06:03:16;0.57;;;0.50;;
1567;SDS011;777;47.156;8.326;2023-03-25T06:05:45;2.50;;;0.45;;
1567;SDS011;777;47.156;8.326;2023-03-25T06:08:12;2.80;;;0.70;;
1567;SDS011;777;47.156;8.326;2023-03-25T06:10:42;2.15;;;0.45;;
1567;SDS011;777;47.156;8.326;2023-03-25T06:13:11;2.63;;;0.60;;
1567;SDS011;777;47.156;8.326;2023-03-25T06:15:38;1.48;;;0.60;;
1567;SDS011;777;47.156;8.326;2023-03-25T06:18:06;2.28;;;0.60;;
1567;SDS011;777;47.156;8.326;2023-03-25T06:20:34;2.13;;;0.60;;
1567;SDS011;777;47.156;8.326;2023-03-25T06:23:01;1.92;;;0.55;;
1567;SDS011;777;47.156;8.326;2023-03-25T06:25:28;1.55;;;0.88;;
1567;SDS011;777;47.156;8.326;2023-03-25T06:27:55;1.00;;;0.80;;
1567;SDS011;777;47.156;8.326;2023-03-25T06:30:27;3.53;;;1.15;;
1567;SDS011;777;47.156;8.326;2023-03-25T06:32:54;2.30;;;0.75;;
1567;SDS011;777;47.156;8.326;2023-03-25T06:35:22;1.33;;;0.80;;
1567;SDS011;777;47.156;8.326;2023-03-25T06:37:49;1.70;;;0.93;;
1567;SDS011;777;47.156;8.326;2023-03-25T06:40:25;3.40;;;0.90;;
1567;SDS011;777;47.156;8.326;2023-03-25T06:42:52;1.75;;;0.90;;
1567;SDS011;777;47.156;8.326;2023-03-25T06:45:43;2.65;;;1.35;;
1567;SDS011;777;47.156;8.326;2023-03-25T06:48:17;2.85;;;2.05;;
1567;SDS011;777;47.156;8.326;2023-03-25T06:50:44;3.70;;;1.27;;
1567;SDS011;777;47.156;8.326;2023-03-25T06:53:11;1.65;;;1.10;;
1567;SDS011;777;47.156;8.326;2023-03-25T06:55:38;3.42;;;1.45;;
1567;SDS011;777;47.156;8.326;2023-03-25T06:58:05;3.00;;;1.27;;
1567;SDS011;777;47.156;8.326;2023-03-25T07:00:32;3.92;;;1.08;;
1567;SDS011;777;47.156;8.326;2023-03-25T07:03:00;1.95;;;0.90;;
1567;SDS011;777;47.156;8.326;2023-03-25T07:05:27;2.42;;;1.00;;
1567;SDS011;777;47.156;8.326;2023-03-25T07:07:54;3.53;;;0.90;;
1567;SDS011;777;47.156;8.326;2023-03-25T07:10:21;1.52;;;0.80;;
1567;SDS011;777;47.156;8.326;2023-03-25T07:12:48;2.67;;;1.00;;
1567;SDS011;777;47.156;8.326;2023-03-25T07:15:15;4.55;;;1.45;;
1567;SDS011;777;47.156;8.326;2023-03-25T07:17:43;3.20;;;2.13;;
1567;SDS011;777;47.156;8.326;2023-03-25T07:20:14;4.47;;;2.55;;
1567;SDS011;777;47.156;8.326;2023-03-25T07:22:41;5.55;;;2.17;;
1567;SDS011;777;47.156;8.326;2023-03-25T07:25:08;5.00;;;2.00;;
1567;SDS011;777;47.156;8.326;2023-03-25T07:27:35;4.10;;;1.50;;
1567;SDS011;777;47.156;8.326;2023-03-25T07:30:07;4.35;;;1.92;;
1567;SDS011;777;47.156;8.326;2023-03-25T07:32:35;2.53;;;1.58;;
1567;SDS011;777;47.156;8.326;2023-03-25T07:35:02;2.65;;;1.50;;
1567;SDS011;777;47.156;8.326;2023-03-25T07:37:30;2.92;;;1.33;;
1567;SDS011;777;47.156;8.326;2023-03-25T07:39:57;4.95;;;1.50;;
1567;SDS011;777;47.156;8.326;2023-03-25T07:42:24;3.92;;;1.40;;
1567;SDS011;777;47.156;8.326;2023-03-25T07:45:17;3.97;;;1.65;;
1567;SDS011;777;47.156;8.326;2023-03-25T07:47:45;2.92;;;1.33;;
1567;SDS011;777;47.156;8.326;2023-03-25T07:50:14;3.67;;;1.80;;
1567;SDS011;777;47.156;8.326;2023-03-25T07:52:43;3.25;;;1.50;;
1567;SDS011;777;47.156;8.326;2023-03-25T07:55:10;4.15;;;1.70;;
1567;SDS011;777;47.156;8.326;2023-03-25T07:57:38;2.28;;;1.10;;
1567;SDS011;777;47.156;8.326;2023-03-25T08:00:06;3.75;;;1.17;;
1567;SDS011;777;47.156;8.326;2023-03-25T08:02:37;4.32;;;1.20;;
1567;SDS011;777;47.156;8.326;2023-03-25T08:05:06;3.75;;;1.60;;
1567;SDS011;777;47.156;8.326;2023-03-25T08:07:33;2.60;;;1.60;;
1567;SDS011;777;47.156;8.326;2023-03-25T08:10:01;3.03;;;1.98;;
1567;SDS011;777;47.156;8.326;2023-03-25T08:12:29;3.75;;;1.73;;
1567;SDS011;777;47.156;8.326;2023-03-25T08:14:56;4.07;;;1.85;;
1567;SDS011;777;47.156;8.326;2023-03-25T08:17:24;5.97;;;1.90;;
1567;SDS011;777;47.156;8.326;2023-03-25T08:19:53;3.35;;;1.10;;
1567;SDS011;777;47.156;8.326;2023-03-25T08:22:20;4.32;;;1.00;;
1567;SDS011;777;47.156;8.326;2023-03-25T08:24:47;4.03;;;1.10;;
1567;SDS011;777;47.156;8.326;2023-03-25T08:27:15;3.70;;;0.93;;
1567;SDS011;777;47.156;8.326;2023-03-25T08:29:42;2.45;;;0.95;;
1567;SDS011;777;47.156;8.326;2023-03-25T08:32:09;3.40;;;0.82;;
1567;SDS011;777;47.156;8.326;2023-03-25T08:34:36;3.25;;;0.80;;
1567;SDS011;777;47.156;8.326;2023-03-25T08:37:04;3.53;;;0.80;;
1567;SDS011;777;47.156;8.326;2023-03-25T08:39:32;4.07;;;1.20;;
1567;SDS011;777;47.156;8.326;2023-03-25T08:42:03;1.60;;;0.52;;
1567;SDS011;777;47.156;8.326;2023-03-25T08:44:32;2.60;;;0.70;;
1567;SDS011;777;47.156;8.326;2023-03-25T08:46:59;3.78;;;0.70;;
1567;SDS011;777;47.156;8.326;2023-03-25T08:49:26;2.75;;;0.77;;
1567;SDS011;777;47.156;8.326;2023-03-25T08:51:53;3.20;;;0.70;;
1567;SDS011;777;47.156;8.326;2023-03-25T08:54:22;3.15;;;0.60;;
1567;SDS011;777;47.156;8.326;2023-03-25T08:56:49;3.22;;;0.70;;
1567;SDS011;777;47.156;8.326;2023-03-25T08:59:15;3.17;;;0.73;;
1567;SDS011;777;47.156;8.326;2023-03-25T09:01:44;2.63;;;0.80;;
1567;SDS011;777;47.156;8.326;2023-03-25T09:04:11;2.50;;;0.68;;
1567;SDS011;777;47.156;8.326;2023-03-25T09:06:38;2.72;;;0.77;;
1567;SDS011;777;47.156;8.326;2023-03-25T09:09:06;1.77;;;0.60;;
1567;SDS011;777;47.156;8.326;2023-03-25T09:11:34;3.08;;;0.60;;
1567;SDS011;777;47.156;8.326;2023-03-25T09:14:01;4.15;;;1.08;;
1567;SDS011;777;47.156;8.326;2023-03-25T09:16:29;6.10;;;2.50;;
1567;SDS011;777;47.156;8.326;2023-03-25T09:18:57;3.92;;;0.90;;
1567;SDS011;777;47.156;8.326;2023-03-25T09:21:24;3.67;;;0.70;;
1567;SDS011;777;47.156;8.326;2023-03-25T09:23:51;2.72;;;0.77;;
1567;SDS011;777;47.156;8.326;2023-03-25T09:26:18;2.85;;;0.60;;
1567;SDS011;777;47.156;8.326;2023-03-25T09:28:45;3.22;;;0.80;;
1567;SDS011;777;47.156;8.326;2023-03-25T09:31:12;4.22;;;1.30;;
1567;SDS011;777;47.156;8.326;2023-03-25T09:33:40;2.28;;;0.60;;
1567;SDS011;777;47.156;8.326;2023-03-25T09:36:08;3.05;;;0.60;;
1567;SDS011;777;47.156;8.326;2023-03-25T09:38:35;1.38;;;0.50;;
1567;SDS011;777;47.156;8.326;2023-03-25T09:41:03;1.92;;;0.60;;
1567;SDS011;777;47.156;8.326;2023-03-25T09:43:55;2.67;;;0.60;;
1567;SDS011;777;47.156;8.326;2023-03-25T09:46:30;1.25;;;0.57;;
1567;SDS011;777;47.156;8.326;2023-03-25T09:48:57;1.00;;;0.50;;
1567;SDS011;777;47.156;8.326;2023-03-25T09:51:27;2.42;;;0.50;;
1567;SDS011;777;47.156;8.326;2023-03-25T09:53:59;3.50;;;0.90;;
1567;SDS011;777;47.156;8.326;2023-03-25T09:56:30;2.33;;;0.60;;
1567;SDS011;777;47.156;8.326;2023-03-25T09:59:02;1.55;;;0.50;;
1567;SDS011;777;47.156;8.326;2023-03-25T10:01:34;1.35;;;0.50;;
1567;SDS011;777;47.156;8.326;2023-03-25T10:04:12;1.35;;;0.60;;
1567;SDS011;777;47.156;8.326;2023-03-25T10:06:55;1.30;;;0.50;;
1567;SDS011;777;47.156;8.326;2023-03-25T10:09:33;1.30;;;0.52;;
1567;SDS011;777;47.156;8.326;2023-03-25T10:12:11;2.33;;;0.52;;
1567;SDS011;777;47.156;8.326;2023-03-25T10:14:55;2.55;;;0.45;;
1567;SDS011;777;47.156;8.326;2023-03-25T10:17:29;2.08;;;0.60;;
1567;SDS011;777;47.156;8.326;2023-03-25T10:20:04;1.20;;;0.60;;
1567;SDS011;777;47.156;8.326;2023-03-25T10:22:39;3.28;;;0.60;;
1567;SDS011;777;47.156;8.326;2023-03-25T10:25:15;3.17;;;1.33;;
1567;SDS011;777;47.156;8.326;2023-03-25T10:27:45;1.98;;;0.75;;
1567;SDS011;777;47.156;8.326;2023-03-25T10:30:15;1.42;;;0.50;;
1567;SDS011;777;47.156;8.326;2023-03-25T10:32:47;1.35;;;0.60;;
1567;SDS011;777;47.156;8.326;2023-03-25T10:35:18;1.70;;;0.52;;
1567;SDS011;777;47.156;8.326;2023-03-25T10:37:50;1.63;;;0.60;;
1567;SDS011;777;47.156;8.326;2023-03-25T10:40:21;1.77;;;0.60;;
1567;SDS011;777;47.156;8.326;2023-03-25T10:42:54;2.70;;;0.60;;
1567;SDS011;777;47.156;8.326;2023-03-25T10:45:38;1.90;;;0.65;;
1567;SDS011;777;47.156;8.326;2023-03-25T10:48:09;2.10;;;0.60;;
1567;SDS011;777;47.156;8.326;2023-03-25T10:50:39;1.08;;;0.50;;
1567;SDS011;777;47.156;8.326;2023-03-25T10:53:11;3.10;;;0.70;;
1567;SDS011;777;47.156;8.326;2023-03-25T10:55:45;1.95;;;0.75;;
1567;SDS011;777;47.156;8.326;2023-03-25T10:58:17;3.25;;;0.65;;
1567;SDS011;777;47.156;8.326;2023-03-25T11:00:45;1.02;;;0.47;;
1567;SDS011;777;47.156;8.326;2023-03-25T11:03:14;1.70;;;0.50;;
1567;SDS011;777;47.156;8.326;2023-03-25T11:05:47;1.58;;;0.45;;
1567;SDS011;777;47.156;8.326;2023-03-25T11:08:15;2.10;;;0.77;;
1567;SDS011;777;47.156;8.326;2023-03-25T11:10:46;0.93;;;0.50;;
1567;SDS011;777;47.156;8.326;2023-03-25T11:13:15;1.75;;;0.52;;
1567;SDS011;777;47.156;8.326;2023-03-25T11:15:50;1.00;;;0.47;;
1567;SDS011;777;47.156;8.326;2023-03-25T11:18:19;3.08;;;0.57;;
1567;SDS011;777;47.156;8.326;2023-03-25T11:20:48;1.20;;;0.50;;
1567;SDS011;777;47.156;8.326;2023-03-25T11:23:23;3.08;;;0.50;;
1567;SDS011;777;47.156;8.326;2023-03-25T11:25:52;1.55;;;0.57;;
1567;SDS011;777;47.156;8.326;2023-03-25T11:28:34;1.23;;;0.40;;
1567;SDS011;777;47.156;8.326;2023-03-25T11:31:04;2.88;;;0.50;;
1567;SDS011;777;47.156;8.326;2023-03-25T11:33:33;1.65;;;0.57;;
1567;SDS011;777;47.156;8.326;2023-03-25T11:36:09;2.00;;;0.50;;
1567;SDS011;777;47.156;8.326;2023-03-25T11:38:39;1.00;;;0.40;;
1567;SDS011;777;47.156;8.326;2023-03-25T11:41:06;0.80;;;0.43;;
1567;SDS011;777;47.156;8.326;2023-03-25T11:43:33;1.48;;;0.40;;
1567;SDS011;777;47.156;8.326;2023-03-25T11:46:08;0.85;;;0.40;;
1567;SDS011;777;47.156;8.326;2023-03-25T11:48:38;1.27;;;0.57;;
1567;SDS011;777;47.156;8.326;2023-03-25T11:51:07;1.77;;;0.60;;
1567;SDS011;777;47.156;8.326;2023-03-25T11:53:42;0.80;;;0.40;;
1567;SDS011;777;47.156;8.326;2023-03-25T11:56:10;0.95;;;0.52;;
1567;SDS011;777;47.156;8.326;2023-03-25T11:58:44;4.28;;;0.90;;
1567;SDS011;777;47.156;8.326;2023-03-25T12:01:19;2.88;;;0.40;;
1567;SDS011;777;47.156;8.326;2023-03-25T12:03:49;3.60;;;0.98;;
1567;SDS011;777;47.156;8.326;2023-03-25T12:06:17;0.55;;;0.28;;
1567;SDS011;777;47.156;8.326;2023-03-25T12:08:49;0.95;;;0.38;;
1567;SDS011;777;47.156;8.326;2023-03-25T12:11:19;2.60;;;0.40;;
1567;SDS011;777;47.156;8.326;2023-03-25T12:13:56;1.27;;;0.30;;
1567;SDS011;777;47.156;8.326;2023-03-25T12:16:39;1.08;;;0.30;;
1567;SDS011;777;47.156;8.326;2023-03-25T12:19:15;0.75;;;0.30;;
1567;SDS011;777;47.156;8.326;2023-03-25T12:21:55;1.10;;;0.30;;
1567;SDS011;777;47.156;8.326;2023-03-25T12:24:33;0.90;;;0.20;;
1567;SDS011;777;47.156;8.326;2023-03-25T12:27:15;0.43;;;0.10;;
1567;SDS011;777;47.156;8.326;2023-03-25T12:29:51;0.60;;;0.30;;
1567;SDS011;777;47.156;8.326;2023-03-25T12:34:58;0.38;;;0.10;;
1567;SDS011;777;47.156;8.326;2023-03-25T12:37:53;1.48;;;0.17;;
1567;SDS011;777;47.156;8.326;2023-03-25T12:40:46;0.65;;;0.10;;
1567;SDS011;777;47.156;8.326;2023-03-25T12:43:20;0.43;;;0.20;;
1567;SDS011;777;47.156;8.326;2023-03-25T12:45:58;0.95;;;0.17;;
1567;SDS011;777;47.156;8.326;2023-03-25T12:48:36;0.63;;;0.13;;
1567;SDS011;777;47.156;8.326;2023-03-25T12:51:16;0.73;;;0.15;;
1567;SDS011;777;47.156;8.326;2023-03-25T12:53:53;0.77;;;0.13;;
1567;SDS011;777;47.156;8.326;2023-03-25T12:56:33;1.50;;;0.20;;
1567;SDS011;777;47.156;8.326;2023-03-25T12:59:16;2.40;;;0.50;;
1567;SDS011;777;47.156;8.326;2023-03-25T13:01:54;0.60;;;0.20;;
1567;SDS011;777;47.156;8.326;2023-03-25T13:04:33;0.55;;;0.10;;
1567;SDS011;777;47.156;8.326;2023-03-25T13:07:09;0.13;;;0.10;;
1567;SDS011;777;47.156;8.326;2023-03-25T13:09:44;1.95;;;0.28;;
1567;SDS011;777;47.156;8.326;2023-03-25T13:12:22;0.00;;;0.00;;
1567;SDS011;777;47.156;8.326;2023-03-25T13:14:56;0.20;;;0.10;;
1567;SDS011;777;47.156;8.326;2023-03-25T13:17:30;0.35;;;0.08;;
1567;SDS011;777;47.156;8.326;2023-03-25T13:20:01;1.58;;;0.60;;
1567;SDS011;777;47.156;8.326;2023-03-25T13:22:35;1.20;;;0.70;;
1567;SDS011;777;47.156;8.326;2023-03-25T13:25:13;1.38;;;0.73;;
1567;SDS011;777;47.156;8.326;2023-03-25T13:27:46;1.48;;;0.80;;
1567;SDS011;777;47.156;8.326;2023-03-25T13:30:19;0.50;;;0.20;;
1567;SDS011;777;47.156;8.326;2023-03-25T13:32:52;0.70;;;0.20;;
1567;SDS011;777;47.156;8.326;2023-03-25T13:35:24;1.70;;;0.30;;
1567;SDS011;777;47.156;8.326;2023-03-25T13:38:00;0.20;;;0.10;;
1567;SDS011;777;47.156;8.326;2023-03-25T13:40:33;0.22;;;0.20;;
1567;SDS011;777;47.156;8.326;2023-03-25T13:45:42;1.00;;;0.30;;
1567;SDS011;777;47.156;8.326;2023-03-25T13:48:15;0.40;;;0.20;;
1567;SDS011;777;47.156;8.326;2023-03-25T13:50:48;0.47;;;0.20;;
1567;SDS011;777;47.156;8.326;2023-03-25T13:53:16;1.08;;;0.25;;
1567;SDS011;777;47.156;8.326;2023-03-25T13:55:48;1.35;;;0.47;;
1567;SDS011;777;47.156;8.326;2023-03-25T14:01:26;1.25;;;0.30;;
1567;SDS011;777;47.156;8.326;2023-03-25T14:04:15;1.70;;;0.30;;
1567;SDS011;777;47.156;8.326;2023-03-25T14:13:08;1.08;;;0.45;;
1567;SDS011;777;47.156;8.326;2023-03-25T14:15:39;0.63;;;0.40;;
1567;SDS011;777;47.156;8.326;2023-03-25T14:18:12;1.45;;;0.40;;
1567;SDS011;777;47.156;8.326;2023-03-25T14:20:42;1.55;;;0.40;;
1567;SDS011;777;47.156;8.326;2023-03-25T14:23:11;1.40;;;0.40;;
1567;SDS011;777;47.156;8.326;2023-03-25T14:25:42;1.27;;;0.45;;
1567;SDS011;777;47.156;8.326;2023-03-25T14:28:16;0.90;;;0.40;;
1567;SDS011;777;47.156;8.326;2023-03-25T14:37:10;1.48;;;0.40;;
1567;SDS011;777;47.156;8.326;2023-03-25T14:39:50;1.15;;;0.40;;
1567;SDS011;777;47.156;8.326;2023-03-25T14:42:22;1.77;;;0.30;;
1567;SDS011;777;47.156;8.326;2023-03-25T14:44:52;1.63;;;0.50;;
1567;SDS011;777;47.156;8.326;2023-03-25T14:47:50;1.30;;;0.40;;
1567;SDS011;777;47.156;8.326;2023-03-25T14:50:31;0.73;;;0.30;;
1567;SDS011;777;47.156;8.326;2023-03-25T14:53:00;1.48;;;0.35;;
1567;SDS011;777;47.156;8.326;2023-03-25T14:55:31;1.17;;;0.30;;
1567;SDS011;777;47.156;8.326;2023-03-25T14:58:00;1.23;;;0.35;;
1567;SDS011;777;47.156;8.326;2023-03-25T15:00:30;0.55;;;0.25;;
1567;SDS011;777;47.156;8.326;2023-03-25T15:03:01;1.80;;;0.40;;
1567;SDS011;777;47.156;8.326;2023-03-25T15:05:34;2.63;;;0.25;;
1567;SDS011;777;47.156;8.326;2023-03-25T15:08:09;1.40;;;0.22;;
1567;SDS011;777;47.156;8.326;2023-03-25T15:10:39;2.22;;;0.30;;
1567;SDS011;777;47.156;8.326;2023-03-25T15:13:08;1.92;;;0.20;;
1567;SDS011;777;47.156;8.326;2023-03-25T15:15:52;1.88;;;0.20;;
1567;SDS011;777;47.156;8.326;2023-03-25T15:21:24;2.92;;;0.30;;
1567;SDS011;777;47.156;8.326;2023-03-25T15:23:56;1.92;;;0.57;;
1567;SDS011;777;47.156;8.326;2023-03-25T15:26:30;2.50;;;0.52;;
1567;SDS011;777;47.156;8.326;2023-03-25T15:29:05;1.27;;;0.38;;
1567;SDS011;777;47.156;8.326;2023-03-25T15:31:45;1.52;;;0.40;;
1567;SDS011;777;47.156;8.326;2023-03-25T15:34:25;1.67;;;0.60;;
1567;SDS011;777;47.156;8.326;2023-03-25T15:37:28;1.45;;;0.60;;
1567;SDS011;777;47.156;8.326;2023-03-25T15:40:14;2.13;;;0.50;;
1567;SDS011;777;47.156;8.326;2023-03-25T15:42:58;1.38;;;0.60;;
1567;SDS011;777;47.156;8.326;2023-03-25T15:45:59;1.98;;;0.50;;
1567;SDS011;777;47.156;8.326;2023-03-25T15:48:45;1.73;;;0.50;;
1567;SDS011;777;47.156;8.326;2023-03-25T15:51:35;1.55;;;0.52;;
1567;SDS011;777;47.156;8.326;2023-03-25T15:57:12;2.03;;;0.70;;
1567;SDS011;777;47.156;8.326;2023-03-25T15:59:44;2.30;;;0.80;;
1567;SDS011;777;47.156;8.326;2023-03-25T16:02:20;3.28;;;0.47;;
1567;SDS011;777;47.156;8.326;2023-03-25T16:04:52;1.55;;;0.43;;
1567;SDS011;777;47.156;8.326;2023-03-25T16:07:22;1.70;;;0.60;;
1567;SDS011;777;47.156;8.326;2023-03-25T16:09:52;4.20;;;0.68;;
1567;SDS011;777;47.156;8.326;2023-03-25T16:12:20;3.47;;;0.80;;
1567;SDS011;777;47.156;8.326;2023-03-25T16:14:49;1.70;;;0.50;;
1567;SDS011;777;47.156;8.326;2023-03-25T16:17:17;0.98;;;0.50;;
1567;SDS011;777;47.156;8.326;2023-03-25T16:19:47;1.45;;;0.60;;
1567;SDS011;777;47.156;8.326;2023-03-25T16:22:18;2.30;;;0.68;;
1567;SDS011;777;47.156;8.326;2023-03-25T16:24:51;1.92;;;0.68;;
1567;SDS011;777;47.156;8.326;2023-03-25T16:27:21;1.58;;;0.70;;
1567;SDS011;777;47.156;8.326;2023-03-25T16:29:50;2.75;;;0.73;;
1567;SDS011;777;47.156;8.326;2023-03-25T16:32:19;2.40;;;0.80;;
1567;SDS011;777;47.156;8.326;2023-03-25T16:34:47;1.90;;;0.75;;